Flight Track Log - Related Links

Times and Time Zones

All times are in EDT time to prevent confusion due to time zone crossing. See the SKW6228 flight status page for this flight to view local times or setup timezone preferences in your user account.

Time Position Orientation Groundspeed Altitude Reporting Facility
EDT Latitude Longitude Course Direction KTS MPH feet Rate Location/Type
Fri 07:46:00 AM 46.4225 -100.9357 204° Southwest  Level FlightAware Approximate
Fri 07:46:15 AM 46.6133 -100.7978 202° Southwest 265 305 7,600  Level Minneapolis Center
Fri 07:47:00 AM 46.3069 -101.0018 201° Southwest  Level FlightAware Approximate
Fri 07:47:16 AM 46.5453 -100.8389 203° Southwest 285 328 10,000  Level Minneapolis Center
Fri 07:48:00 AM 46.1902 -101.0633 199° South  Level FlightAware Approximate
Fri 07:48:17 AM 46.4667 -100.8858 202° Southwest 299 344 11,900  Level Minneapolis Center
Fri 07:49:00 AM 46.0737 -101.1258 203° Southwest  Level FlightAware Approximate
Fri 07:49:18 AM 46.3772 -100.9378 202° Southwest 333 383 13,800  Level Minneapolis Center
Fri 07:50:00 AM 45.9590 -101.1946 203° Southwest  Level FlightAware Approximate
Fri 07:50:19 AM 46.2858 -100.9914 202° Southwest 350 403 15,800  Level Minneapolis Center
Fri 07:51:00 AM 45.8439 -101.2620 202° Southwest  Level FlightAware Approximate
Fri 07:51:20 AM 46.1917 -101.0472 202° Southwest 361 415 17,900  Level Minneapolis Center
Fri 07:52:21 AM 46.0753 -101.1153 202° Southwest 372 428 19,600 1,525 Climbing Minneapolis Center
Fri 07:53:22 AM 45.9733 -101.1733 202° Southwest 386 444 21,000 1,426 Climbing Minneapolis Center
Fri 07:54:23 AM 45.8714 -101.2308 201° Southwest 393 452 22,500 1,328 Climbing Minneapolis Center
Fri 07:55:24 AM 45.7658 -101.2911 202° Southwest 401 461 23,700 1,131 Climbing Minneapolis Center
Fri 07:56:25 AM 45.6569 -101.3553 202° Southwest 414 476 24,800 836 Climbing Minneapolis Center
Fri 07:57:26 AM 45.5453 -101.4186 202° Southwest 425 489 25,400 738 Climbing Minneapolis Center
Fri 07:58:27 AM 45.4294 -101.4850 202° Southwest 440 506 26,300 836 Climbing Minneapolis Center
Fri 07:59:28 AM 45.3111 -101.5503 201° Southwest 451 519 27,100 787 Climbing Minneapolis Center
Fri 08:00:29 AM 45.1914 -101.6172 202° Southwest 460 529 27,900 787 Climbing Minneapolis Center
Fri 08:01:30 AM 45.0708 -101.6856 202° Southwest 465 535 28,700 738 Climbing Minneapolis Center
Fri 08:02:31 AM 44.9489 -101.7542 202° Southwest 470 541 29,400 836 Climbing Minneapolis Center
Fri 08:03:32 AM 44.8022 -101.8339 201° Southwest 471 542 30,400 836 Climbing Minneapolis Center
Fri 08:04:33 AM 44.6819 -101.9011 202° Southwest 469 540 31,100 651 Climbing Minneapolis Center
Fri 08:05:41 AM 44.5608 -101.9667 201° Southwest 467 537 31,800 422 Climbing Denver Center
Fri 08:06:41 AM 44.4403 -102.0347 202° Southwest 468 539 32,000 99 Climbing Denver Center
Fri 08:07:42 AM 44.3183 -102.1100 204° Southwest 475 547 32,000  Level Denver Center
Fri 08:08:42 AM 44.1919 -102.1825 202° Southwest 486 559 32,000  Level Denver Center
Fri 08:09:43 AM 44.0642 -102.2553 202° Southwest 493 567 32,000  Level Denver Center
Fri 08:10:43 AM 43.9383 -102.3289 203° Southwest 493 567 32,000  Level Denver Center
Fri 08:11:44 AM 43.7914 -102.4167 203° Southwest 487 560 32,000  Level Denver Center
Fri 08:12:45 AM 43.6703 -102.4875 203° Southwest 491 565 32,000  Level Denver Center
Fri 08:13:45 AM 43.5492 -102.5550 202° Southwest 491 565 32,000  Level Denver Center
Fri 08:14:46 AM 43.4086 -102.6364 203° Southwest 490 564 32,000  Level Denver Center
Fri 08:15:46 AM 43.2883 -102.7044 202° Southwest 488 562 32,000  Level Denver Center
Fri 08:16:47 AM 43.1675 -102.7736 203° Southwest 490 564 32,000  Level Denver Center
Fri 08:17:48 AM 43.0469 -102.8425 203° Southwest 491 565 32,000  Level Denver Center
Fri 08:18:48 AM 42.9078 -102.9219 203° Southwest 485 558 32,000  Level Denver Center
Fri 08:19:49 AM 42.7864 -102.9889 202° Southwest 489 563 32,000  Level Denver Center
Fri 08:20:50 AM 42.6653 -103.0569 202° Southwest 489 563 32,000  Level Denver Center
Fri 08:21:50 AM 42.5239 -103.1353 202° Southwest 488 562 32,000  Level Denver Center
Fri 08:22:51 AM 42.4025 -103.2025 202° Southwest 491 565 32,000  Level Denver Center
Fri 08:24:04 AM 42.2297 -103.2417 190° South 493 567 32,000  Level Denver Center
Fri 08:25:05 AM 42.0992 -103.2697 189° South 494 568 32,000  Level Denver Center
Fri 08:26:05 AM 41.9686 -103.2972 189° South 495 570 32,000  Level Denver Center
Fri 08:27:06 AM 41.8164 -103.3281 189° South 494 568 32,000  Level Denver Center
Fri 08:28:07 AM 41.6856 -103.3544 189° South 494 568 32,000  Level Denver Center
Fri 08:29:08 AM 41.5553 -103.3808 189° South 495 570 32,000  Level Denver Center
Fri 08:30:09 AM 41.4028 -103.4111 188° South 495 570 32,000  Level Denver Center
Fri 08:31:09 AM 41.2722 -103.4383 189° South 494 568 32,000  Level Denver Center
Fri 08:32:10 AM 41.1431 -103.4650 189° South 492 566 32,000 -344 Level Denver Center
Fri 08:33:11 AM 41.0103 -103.4903 188° South 499 574 31,300 -1,082 Descending Denver Center
Fri 08:34:12 AM 40.8728 -103.5344 194° South 499 574 29,800 -1,967 Descending Denver Center
Fri 08:35:13 AM 40.7472 -103.5972 201° Southwest 480 552 27,300 -2,459 Descending Denver Center
Fri 08:36:14 AM 40.6286 -103.6567 201° Southwest 457 526 24,800 -2,311 Descending Denver Center
Fri 08:37:15 AM 40.5392 -103.7547 220° Southwest 419 482 22,600 -2,262 Descending Denver Center
Fri 08:38:16 AM 40.4522 -103.8717 226° Southwest 394 453 20,200 -2,083 Descending Denver Center
Fri 08:39:16 AM 40.3842 -103.9694 228° Southwest 364 419 18,400 -1,636 Descending Denver Center
Fri 08:40:17 AM 40.3575 -104.0753 252° West 315 362 16,900 -1,623 Descending Denver Center
Fri 08:41:18 AM 40.3556 -104.1817 269° West 294 338 15,100 -1,426 Descending Denver Center
Fri 08:42:19 AM 40.3544 -104.2853 269° West 285 328 14,000 -541 Descending Denver Center
Fri 08:43:20 AM 40.3528 -104.3761 269° West 256 295 14,000 -639 Level Denver Center
Fri 08:44:21 AM 40.3514 -104.4739 269° West 250 288 12,700 -1,180 Descending Denver Center
Fri 08:45:22 AM 40.2931 -104.5303 216° Southwest 275 316 11,600 -1,082 Descending Denver Center
Fri 08:46:23 AM 40.2261 -104.5719 205° Southwest 269 310 10,500 -787 Descending Denver Center
Fri 08:47:24 AM 40.1636 -104.6114 206° Southwest 251 289 10,000 -344 Descending Denver Center
Fri 08:48:25 AM 40.1092 -104.6425 204° Southwest 219 252 9,800 -197 Descending Denver Center

Login

Don't have an account? Register now (free) for customized features, flight alerts, and more!